Time;durP1;ratioP1;P1;durP2;ratioP2;P2;SDS_P1;SDS_P2;PMS_P1;PMS_P2;Temp;Humidity;BMP_temperature;BMP_pressure;BME280_temperature;BME280_humidity;BME280_pressure;Samples;Min_cycle;Max_cycle;Signal;HPM_P1;HPM_P2
2023/06/08 00:00:09;;;;;;;;;16.00;15.00;;;;;20.41;44.04;101234.66;5097088;27;45164;-69
2023/06/08 00:02:35;;;;;;;;;17.67;16.00;;;;;20.33;43.64;101226.69;5096215;27;45867;-69
2023/06/08 00:05:02;;;;;;;;;17.33;15.33;;;;;20.35;44.69;101232.91;5084407;27;47975;-68
2023/06/08 00:07:28;;;;;;;;;15.00;14.00;;;;;20.22;44.32;101215.16;5080846;27;45267;-69
2023/06/08 00:09:54;;;;;;;;;19.33;18.67;;;;;20.06;45.44;101195.59;5086594;27;45235;-69
2023/06/08 00:12:20;;;;;;;;;16.33;15.33;;;;;20.22;44.40;101228.59;5092407;27;45497;-69
2023/06/08 00:14:46;;;;;;;;;18.67;17.67;;;;;20.20;43.96;101221.44;5084877;27;45992;-68
2023/06/08 00:17:11;;;;;;;;;19.00;17.00;;;;;20.15;45.86;101224.16;5098620;27;45355;-69
2023/06/08 00:19:37;;;;;;;;;21.33;20.00;;;;;20.09;45.24;101213.47;5090483;27;45477;-69
2023/06/08 00:22:04;;;;;;;;;16.00;15.67;;;;;20.07;45.23;101210.78;5088921;27;45428;-69
2023/06/08 00:24:34;;;;;;;;;20.67;18.00;;;;;20.07;46.43;101216.16;5086224;27;45383;-69
2023/06/08 00:27:00;;;;;;;;;20.33;18.67;;;;;20.02;44.38;101207.25;5089498;27;45449;-69
2023/06/08 00:29:26;;;;;;;;;18.67;18.00;;;;;20.01;45.82;101216.22;5087455;27;45586;-69
2023/06/08 00:31:52;;;;;;;;;18.33;18.33;;;;;19.96;45.76;101211.78;5090758;27;45650;-69
2023/06/08 00:34:18;;;;;;;;;21.33;20.00;;;;;19.86;45.40;101192.22;5089746;27;46581;-69
2023/06/08 00:36:44;;;;;;;;;19.33;19.33;;;;;19.92;46.86;101205.56;5095058;27;45339;-69
2023/06/08 00:39:09;;;;;;;;;21.00;19.67;;;;;19.94;45.59;101202.84;5088268;27;45264;-69
2023/06/08 00:41:35;;;;;;;;;21.67;19.33;;;;;19.86;46.36;101203.81;5088943;27;45418;-69
2023/06/08 00:44:00;;;;;;;;;22.00;20.33;;;;;19.84;47.19;101210.97;5089671;27;45456;-69
2023/06/08 00:46:30;;;;;;;;;16.33;16.00;;;;;19.79;47.01;101193.13;5095085;27;45299;-69
2023/06/08 00:48:57;;;;;;;;;20.67;19.00;;;;;19.79;47.19;101201.19;5095744;27;45385;-69
2023/06/08 00:51:24;;;;;;;;;20.00;16.00;;;;;19.74;47.84;101198.53;5096223;27;45381;-69
2023/06/08 00:53:51;;;;;;;;;16.00;14.67;;;;;19.75;45.77;101199.44;5092174;27;45454;-69
2023/06/08 00:56:18;;;;;;;;;20.00;18.33;;;;;19.62;48.26;101179.81;5093231;27;45427;-69
2023/06/08 00:58:46;;;;;;;;;23.00;20.00;;;;;19.68;47.78;101195.91;5088482;27;45437;-69
2023/06/08 01:01:19;;;;;;;;;20.33;18.67;;;;;19.65;48.61;101191.44;5094661;27;45283;-69
2023/06/08 01:03:45;;;;;;;;;22.00;20.67;;;;;19.62;48.13;101187.88;5098266;27;45623;-69
2023/06/08 01:06:12;;;;;;;;;26.00;22.67;;;;;19.55;48.70;101186.09;5101240;27;45420;-69
2023/06/08 01:08:53;;;;;;;;;20.00;20.00;;;;;19.59;48.27;101191.44;5091546;27;45476;-69
2023/06/08 01:11:26;;;;;;;;;22.67;19.33;;;;;19.55;47.32;101192.38;5093450;27;45509;-68
2023/06/08 01:14:07;;;;;;;;;25.00;22.00;;;;;19.49;48.35;101188.84;5084803;27;46527;-69
2023/06/08 01:16:37;;;;;;;;;18.00;18.00;;;;;19.48;47.28;101190.63;5092885;27;45228;-69
2023/06/08 01:19:10;;;;;;;;;22.00;22.00;;;;;19.44;49.39;101191.56;5088502;27;45360;-69
2023/06/08 01:22:00;;;;;;;;;20.33;18.33;;;;;19.42;48.41;101196.03;5085050;27;45442;-68
2023/06/08 01:24:30;;;;;;;;;23.00;23.00;;;;;19.32;47.73;101180.88;5088527;27;45975;-69
2023/06/08 01:26:59;;;;;;;;;22.33;22.00;;;;;19.33;49.54;101188.94;5090087;27;45326;-69
2023/06/08 01:29:33;;;;;;;;;20.67;19.33;;;;;19.17;48.93;101166.66;5087728;27;45287;-68
2023/06/08 01:31:59;;;;;;;;;23.33;20.67;;;;;19.24;48.92;101189.00;5088316;27;45466;-69
2023/06/08 01:34:25;;;;;;;;;20.33;19.67;;;;;19.22;49.28;101193.47;5085505;27;47044;-69
2023/06/08 01:37:00;;;;;;;;;20.00;17.67;;;;;19.19;49.68;101194.38;5087677;27;45428;-69
2023/06/08 01:39:37;;;;;;;;;21.67;20.00;;;;;19.18;49.30;101191.69;5083305;27;45526;-68
2023/06/08 01:42:05;;;;;;;;;24.33;20.33;;;;;19.16;48.65;101197.06;5081607;27;45391;-69
2023/06/08 01:44:40;;;;;;;;;23.00;22.33;;;;;19.14;49.89;101200.66;5083694;27;45445;-69
2023/06/08 01:47:07;;;;;;;;;19.67;19.00;;;;;19.07;49.06;101185.47;5096286;27;45344;-69
2023/06/08 01:49:34;;;;;;;;;22.33;18.00;;;;;19.09;50.63;101199.78;5087183;27;45426;-68
2023/06/08 01:52:00;;;;;;;;;22.67;20.33;;;;;19.07;49.00;101196.19;5091719;27;45607;-69
2023/06/08 01:54:25;;;;;;;;;22.33;20.67;;;;;19.04;50.88;101196.22;5095175;27;45819;-69
2023/06/08 01:56:51;;;;;;;;;27.67;23.00;;;;;18.95;51.47;101183.75;5093179;27;46436;-69
2023/06/08 01:59:16;;;;;;;;;21.33;21.00;;;;;18.92;48.33;101175.72;5092900;27;45220;-69
2023/06/08 02:01:41;;;;;;;;;22.00;21.00;;;;;18.96;50.47;101191.78;5082924;27;45374;-69
2023/06/08 02:04:07;;;;;;;;;24.33;23.33;;;;;18.86;50.05;101181.13;5086448;27;45978;-69
2023/06/08 02:06:32;;;;;;;;;29.00;25.00;;;;;18.83;51.61;101195.41;5095509;27;46523;-68
2023/06/08 02:09:00;;;;;;;;;22.67;22.67;;;;;18.86;51.66;101207.91;5081590;27;45420;-69
2023/06/08 02:11:25;;;;;;;;;28.00;24.33;;;;;18.77;50.28;101190.97;5081755;27;45322;-68
2023/06/08 02:13:51;;;;;;;;;21.00;21.00;;;;;18.77;52.26;101196.31;5091547;27;45888;-68
2023/06/08 02:16:18;;;;;;;;;24.00;20.67;;;;;18.71;52.39;101184.72;5082943;27;45373;-68
2023/06/08 02:18:44;;;;;;;;;26.00;22.33;;;;;18.73;52.25;101194.50;5091993;27;45523;-69
2023/06/08 02:21:10;;;;;;;;;24.67;23.00;;;;;18.75;51.58;101197.22;5087784;27;45425;-69
2023/06/08 02:23:36;;;;;;;;;26.67;25.33;;;;;18.74;49.53;101198.13;5092919;27;45301;-68
2023/06/08 02:26:02;;;;;;;;;23.33;22.00;;;;;18.72;51.88;101199.88;5092786;27;45363;-68
2023/06/08 02:28:28;;;;;;;;;28.00;25.67;;;;;18.70;51.66;101193.63;5089363;27;45294;-68
2023/06/08 02:30:53;;;;;;;;;23.00;19.67;;;;;18.56;51.02;101175.78;5088472;27;45619;-68
2023/06/08 02:33:20;;;;;;;;;22.00;22.00;;;;;18.56;52.79;101180.25;5088877;27;45468;-68
2023/06/08 02:35:46;;;;;;;;;23.33;22.00;;;;;18.62;52.57;101193.63;5088495;27;45307;-68
2023/06/08 02:38:12;;;;;;;;;20.00;20.00;;;;;18.52;51.36;101173.16;5089360;27;45363;-68
2023/06/08 02:40:37;;;;;;;;;23.33;22.67;;;;;18.54;51.26;101180.28;5088316;27;45437;-68
2023/06/08 02:43:02;;;;;;;;;24.33;21.00;;;;;18.39;52.66;101156.22;5087614;27;46102;-68
2023/06/08 02:45:27;;;;;;;;;24.00;22.33;;;;;18.36;52.84;101155.34;5080572;27;45318;-68
2023/06/08 02:47:53;;;;;;;;;24.00;23.00;;;;;18.47;53.10;101177.63;5086707;27;45544;-68
2023/06/08 02:50:18;;;;;;;;;27.33;22.33;;;;;18.42;52.78;101168.69;5088645;27;56403;-69
2023/06/08 02:52:44;;;;;;;;;25.33;24.33;;;;;18.47;52.83;101180.28;5085547;27;45286;-69
2023/06/08 02:55:09;;;;;;;;;26.00;23.33;;;;;18.48;51.23;101187.41;5091016;27;45387;-68
2023/06/08 02:57:36;;;;;;;;;24.00;22.00;;;;;18.43;51.14;101181.19;5085489;27;45267;-68
2023/06/08 03:00:08;;;;;;;;;25.67;24.67;;;;;18.44;51.20;101182.97;5090528;27;45485;-68
2023/06/08 03:02:36;;;;;;;;;29.00;27.00;;;;;18.41;52.92;101188.34;5084998;27;45422;-68
2023/06/08 03:05:03;;;;;;;;;28.33;21.67;;;;;18.38;51.29;101180.31;5093171;27;45409;-69
2023/06/08 03:07:33;;;;;;;;;25.33;23.00;;;;;18.36;52.03;101182.97;5090361;27;44773;-68
2023/06/08 03:10:00;;;;;;;;;26.33;23.33;;;;;18.34;53.08;101183.00;5091366;27;46399;-68
2023/06/08 03:12:25;;;;;;;;;25.00;24.00;;;;;18.32;51.65;101187.47;5089529;27;45290;-69
2023/06/08 03:14:50;;;;;;;;;22.67;21.67;;;;;18.25;52.04;101184.78;5089868;27;45540;-68
2023/06/08 03:17:17;;;;;;;;;26.00;26.00;;;;;18.20;52.70;101171.41;5090297;27;45318;-68
2023/06/08 03:19:43;;;;;;;;;24.00;24.00;;;;;18.20;52.75;101176.75;5092899;27;45491;-68
2023/06/08 03:22:09;;;;;;;;;24.00;22.33;;;;;18.24;51.42;101188.38;5090650;27;45401;-68
2023/06/08 03:24:34;;;;;;;;;25.33;21.00;;;;;18.20;53.28;101192.81;5084685;27;45460;-68
2023/06/08 03:27:01;;;;;;;;;21.67;21.67;;;;;18.09;53.03;101168.75;5097690;27;45333;-68
2023/06/08 03:29:27;;;;;;;;;21.67;21.67;;;;;18.05;53.54;101166.06;5085804;27;45420;-69
2023/06/08 03:31:52;;;;;;;;;26.00;22.67;;;;;18.12;52.68;101170.53;5092199;27;46360;-68
2023/06/08 03:34:18;;;;;;;;;24.00;23.00;;;;;18.11;51.97;101169.63;5087781;27;45394;-68
2023/06/08 03:36:44;;;;;;;;;26.67;24.67;;;;;18.11;51.43;101176.78;5085699;27;45305;-68
2023/06/08 03:39:11;;;;;;;;;27.75;26.75;;;;;18.06;53.04;101179.47;5084219;27;45343;-68
2023/06/08 03:41:36;;;;;;;;;25.67;25.00;;;;;18.02;53.47;101177.66;5084151;27;45553;-68
2023/06/08 03:44:01;;;;;;;;;29.50;25.50;;;;;17.98;54.08;101178.56;5084921;27;45492;-68
2023/06/08 03:46:27;;;;;;;;;29.00;24.75;;;;;17.99;51.63;101182.13;5092345;27;45527;-68
2023/06/08 03:48:53;;;;;;;;;25.67;24.67;;;;;17.96;52.56;101177.69;5083492;27;45465;-68
2023/06/08 03:51:22;;;;;;;;;23.33;22.00;;;;;17.93;54.00;101180.34;5085845;27;46107;-68
2023/06/08 03:53:48;;;;;;;;;27.50;25.50;;;;;17.92;52.18;101172.31;5085145;27;45545;-68
2023/06/08 03:56:14;;;;;;;;;31.00;26.00;;;;;17.82;54.71;101163.41;5085602;27;45496;-69
2023/06/08 03:58:41;;;;;;;;;29.25;26.25;;;;;17.86;52.17;101171.41;5081998;27;45232;-68
2023/06/08 04:01:10;;;;;;;;;26.00;25.00;;;;;17.85;53.53;101166.09;5088261;27;46209;-68
2023/06/08 04:03:36;;;;;;;;;32.75;29.00;;;;;17.79;54.42;101163.41;5089410;27;45282;-68
2023/06/08 04:06:02;;;;;;;;;26.00;25.00;;;;;17.81;55.03;101159.84;5092843;27;45353;-68
2023/06/08 04:08:31;;;;;;;;;28.75;27.75;;;;;17.79;55.45;101161.63;5097841;27;45508;-68
2023/06/08 04:10:57;;;;;;;;;32.00;29.00;;;;;17.74;55.20;101158.00;5093783;27;45457;-69
2023/06/08 04:13:22;;;;;;;;;25.00;22.67;;;;;17.72;54.88;101151.78;5093299;27;45239;-68
2023/06/08 04:15:47;;;;;;;;;26.75;25.75;;;;;17.76;55.05;101166.94;5097967;27;45397;-70
2023/06/08 04:18:13;;;;;;;;;28.50;27.00;;;;;17.77;53.01;101171.38;5093057;27;45503;-70
2023/06/08 04:20:40;;;;;;;;;31.75;30.00;;;;;17.68;55.59;101158.91;5084243;27;46351;-70
2023/06/08 04:23:05;;;;;;;;;36.50;30.75;;;;;17.66;53.43;101157.13;5112418;27;45346;-70
2023/06/08 04:25:30;;;;;;;;;30.50;29.00;;;;;17.61;53.99;101151.75;5089096;27;45501;-70
2023/06/08 04:27:56;;;;;;;;;37.00;31.25;;;;;17.66;54.80;101159.78;5093422;27;45602;-70
2023/06/08 04:30:21;;;;;;;;;34.00;29.25;;;;;17.61;54.20;101149.06;5090459;27;45468;-70
2023/06/08 04:32:47;;;;;;;;;34.00;30.50;;;;;17.67;56.78;101164.22;5094175;27;46390;-69
2023/06/08 04:35:12;;;;;;;;;33.00;30.25;;;;;17.71;56.14;101173.19;5091285;27;45513;-70
2023/06/08 04:37:38;;;;;;;;;33.50;31.00;;;;;17.69;55.13;101162.47;5086154;27;45459;-70
2023/06/08 04:40:04;;;;;;;;;38.50;32.25;;;;;17.66;56.65;101167.81;5090569;27;45410;-70
2023/06/08 04:42:32;;;;;;;;;32.75;27.25;;;;;17.66;55.08;101157.13;5087792;27;45411;-69
2023/06/08 04:45:00;;;;;;;;;38.50;32.75;;;;;17.70;57.35;101172.28;5098629;27;46430;-69
2023/06/08 04:47:29;;;;;;;;;34.50;30.00;;;;;17.73;57.63;101174.97;5091788;27;45509;-68
2023/06/08 04:49:58;;;;;;;;;39.00;34.50;;;;;17.71;55.31;101158.00;5093209;27;45691;-70
2023/06/08 04:52:26;;;;;;;;;41.50;33.50;;;;;17.70;55.32;101156.25;5088719;27;45274;-70
2023/06/08 04:54:52;;;;;;;;;32.75;28.75;;;;;17.80;58.69;101171.41;5093569;27;45386;-70
2023/06/08 04:57:19;;;;;;;;;36.00;30.00;;;;;17.81;56.22;101161.59;5088842;27;45375;-69
2023/06/08 04:59:45;;;;;;;;;35.00;31.50;;;;;17.79;56.40;101156.28;5094133;27;46343;-70
2023/06/08 05:02:10;;;;;;;;;33.25;31.00;;;;;17.84;57.02;101167.88;5099872;27;45286;-70
2023/06/08 05:04:36;;;;;;;;;36.50;33.25;;;;;17.84;57.76;101161.59;5091524;27;45380;-71
2023/06/08 05:07:01;;;;;;;;;35.50;32.00;;;;;17.82;58.35;101158.06;5097655;27;45307;-70
2023/06/08 05:09:26;;;;;;;;;40.25;34.25;;;;;17.89;57.91;101167.84;5089695;27;45314;-70
2023/06/08 05:11:52;;;;;;;;;37.50;33.00;;;;;17.85;55.86;101156.28;5097564;27;45361;-70
2023/06/08 05:14:17;;;;;;;;;33.75;31.50;;;;;17.83;55.73;101155.38;5109326;27;45494;-70
2023/06/08 05:16:42;;;;;;;;;40.50;36.50;;;;;17.85;55.91;101164.28;5095874;27;45313;-70
2023/06/08 05:19:08;;;;;;;;;39.25;34.25;;;;;17.91;57.42;101175.88;5093346;27;45398;-71
2023/06/08 05:21:36;;;;;;;;;43.00;34.75;;;;;17.93;56.84;101175.00;5090314;27;45301;-71
2023/06/08 05:24:02;;;;;;;;;40.50;33.75;;;;;17.99;57.89;101177.66;5088267;27;45473;-70
2023/06/08 05:26:27;;;;;;;;;42.50;36.50;;;;;17.98;58.90;101169.63;5091959;27;45354;-70
2023/06/08 05:28:52;;;;;;;;;43.50;34.25;;;;;17.99;56.45;101160.72;5093114;27;45339;-70
2023/06/08 05:31:17;;;;;;;;;34.50;30.50;;;;;17.98;57.41;101156.25;5086535;27;46015;-70
2023/06/08 05:33:43;;;;;;;;;44.25;35.50;;;;;18.07;57.88;101165.19;5091495;27;45452;-70
2023/06/08 05:36:08;;;;;;;;;37.75;32.00;;;;;18.08;57.54;101160.72;5087827;27;46172;-70
2023/06/08 05:38:33;;;;;;;;;48.25;38.50;;;;;18.07;59.04;101151.81;5091615;27;49507;-69
2023/06/08 05:40:59;;;;;;;;;42.50;33.00;;;;;18.22;57.81;101163.38;5093148;27;52368;-70
2023/06/08 05:43:25;;;;;;;;;43.50;35.50;;;;;18.22;57.84;101158.91;5093175;27;45444;-69
2023/06/08 05:45:50;;;;;;;;;43.75;33.25;;;;;18.22;58.83;101147.31;5092335;27;45230;-70
2023/06/08 05:48:16;;;;;;;;;41.75;35.00;;;;;18.21;56.36;101141.09;5085684;27;45208;-70
2023/06/08 05:50:41;;;;;;;;;45.00;36.25;;;;;18.36;56.95;101160.69;5092585;27;45318;-70
2023/06/08 05:53:06;;;;;;;;;40.00;33.25;;;;;18.36;56.40;101149.97;5093422;27;45299;-70
2023/06/08 05:55:32;;;;;;;;;38.50;34.25;;;;;18.24;56.79;101135.72;5089476;27;45438;-73
2023/06/08 05:57:57;;;;;;;;;47.50;37.50;;;;;18.38;58.49;101159.78;5084577;27;46091;-71
2023/06/08 06:00:22;;;;;;;;;46.75;36.50;;;;;18.37;57.68;101163.34;5090378;27;56278;-70
2023/06/08 06:02:48;;;;;;;;;48.00;36.75;;;;;18.43;57.37;101154.41;5094786;27;45329;-71
2023/06/08 06:05:13;;;;;;;;;41.50;35.25;;;;;18.40;58.38;101141.97;5091252;27;46668;-70
2023/06/08 06:07:39;;;;;;;;;44.75;35.00;;;;;18.50;57.33;101151.72;5094858;27;48440;-70
2023/06/08 06:10:06;;;;;;;;;44.75;35.25;;;;;18.53;57.64;101153.50;5092687;27;45353;-70
2023/06/08 06:12:31;;;;;;;;;42.25;35.50;;;;;18.48;58.04;101137.44;5091974;27;45243;-70
2023/06/08 06:14:56;;;;;;;;;39.75;34.75;;;;;18.58;57.64;101148.16;5089628;27;52104;-70
2023/06/08 06:17:22;;;;;;;;;44.00;35.50;;;;;18.64;58.36;101143.66;5091814;27;45310;-72
2023/06/08 06:19:48;;;;;;;;;37.25;32.75;;;;;18.76;58.22;101145.41;5084973;27;45473;-72
2023/06/08 06:22:13;;;;;;;;;40.00;31.50;;;;;18.85;56.76;101142.72;5082897;27;45528;-71
2023/06/08 06:24:39;;;;;;;;;46.50;35.25;;;;;18.90;58.10;101146.25;5092197;27;45335;-70
2023/06/08 06:27:05;;;;;;;;;44.50;34.50;;;;;19.02;58.47;101142.66;5090394;27;45561;-70
2023/06/08 06:29:30;;;;;;;;;37.00;34.00;;;;;19.20;56.48;101142.53;5088537;27;45399;-70
2023/06/08 06:31:56;;;;;;;;;34.00;30.50;;;;;19.43;56.20;101138.81;5091914;27;45250;-70
2023/06/08 06:34:21;;;;;;;;;45.25;36.25;;;;;19.58;56.88;101128.00;5088911;27;45361;-70
2023/06/08 06:36:47;;;;;;;;;40.00;32.75;;;;;19.92;56.38;101132.25;5093088;27;45596;-70
2023/06/08 06:39:13;;;;;;;;;43.25;34.00;;;;;20.07;55.63;101124.91;5092817;27;45719;-69
2023/06/08 06:41:39;;;;;;;;;41.25;34.75;;;;;20.43;55.09;101138.88;5094048;27;45308;-69
2023/06/08 06:44:04;;;;;;;;;44.50;36.50;;;;;20.67;54.48;101127.00;5088322;27;45330;-71
2023/06/08 06:46:30;;;;;;;;;38.25;33.25;;;;;20.84;54.41;101110.69;5086299;27;45466;-70
2023/06/08 06:48:55;;;;;;;;;42.67;35.00;;;;;21.05;53.67;101120.22;5087088;27;45403;-70
2023/06/08 06:51:21;;;;;;;;;39.50;34.00;;;;;21.32;53.43;101123.44;5096695;27;45328;-70
2023/06/08 06:53:46;;;;;;;;;42.00;36.67;;;;;21.56;52.92;101128.47;5084463;27;45519;-70
2023/06/08 06:56:13;;;;;;;;;39.00;33.33;;;;;21.79;52.64;101127.19;5090038;27;45458;-70
2023/06/08 06:58:44;;;;;;;;;42.00;33.67;;;;;21.97;52.21;101117.94;5088599;27;45294;-70
2023/06/08 07:01:12;;;;;;;;;34.00;29.00;;;;;22.29;51.23;101122.75;5097138;27;45444;-70
2023/06/08 07:03:42;;;;;;;;;36.00;33.33;;;;;22.56;51.29;101130.31;5089956;27;45300;-70
2023/06/08 07:06:08;;;;;;;;;42.33;35.33;;;;;22.77;50.41;101128.13;5098062;27;45353;-71
2023/06/08 07:08:34;;;;;;;;;33.00;31.67;;;;;23.03;50.26;101132.09;5085158;27;45385;-70
2023/06/08 07:11:01;;;;;;;;;42.00;34.67;;;;;23.21;49.00;101113.66;5090668;27;45361;-70
2023/06/08 07:13:27;;;;;;;;;40.67;34.67;;;;;23.53;48.68;101128.22;5093187;27;45418;-70
2023/06/08 07:15:52;;;;;;;;;34.67;32.67;;;;;23.74;49.30;101128.66;5090157;27;46043;-70
2023/06/08 07:18:18;;;;;;;;;38.33;33.67;;;;;23.94;48.88;101128.13;5081758;27;45362;-70
2023/06/08 07:20:43;;;;;;;;;38.67;34.00;;;;;24.13;47.83;101121.31;5092988;27;45323;-70
2023/06/08 07:23:08;;;;;;;;;41.00;34.00;;;;;24.35;47.68;101127.91;5089325;27;45268;-71
2023/06/08 07:25:33;;;;;;;;;32.67;30.67;;;;;24.58;47.91;101136.34;5087013;27;45636;-70
2023/06/08 07:27:59;;;;;;;;;40.00;35.33;;;;;24.55;46.24;101123.81;5090157;27;45262;-70
2023/06/08 07:30:25;;;;;;;;;41.33;33.00;;;;;24.76;45.82;101127.72;5086055;27;45315;-70
2023/06/08 07:32:51;;;;;;;;;37.67;32.67;;;;;24.96;45.63;101113.59;5083848;27;45558;-71
2023/06/08 07:35:16;;;;;;;;;40.33;32.67;;;;;25.16;45.12;101104.91;5089350;27;46407;-70
2023/06/08 07:37:42;;;;;;;;;32.00;30.33;;;;;25.41;46.04;101119.41;5084097;27;45319;-70
2023/06/08 07:40:08;;;;;;;;;36.00;31.67;;;;;25.50;44.82;101103.81;5088495;27;45329;-70
2023/06/08 07:42:34;;;;;;;;;33.67;30.67;;;;;25.74;45.34;101107.53;5084702;27;45201;-69
2023/06/08 07:45:00;;;;;;;;;30.00;29.00;;;;;25.93;43.81;101108.69;5093858;27;46955;-71
2023/06/08 07:47:25;;;;;;;;;34.00;31.33;;;;;26.23;43.33;101116.69;5095496;27;45418;-71
2023/06/08 07:49:50;;;;;;;;;34.67;31.00;;;;;26.56;43.03;101109.19;5091653;27;45284;-69
2023/06/08 07:52:16;;;;;;;;;29.33;29.00;;;;;26.75;43.52;101104.84;5086103;27;45354;-69
2023/06/08 07:54:41;;;;;;;;;34.67;30.00;;;;;26.94;41.93;101118.59;5083703;27;46315;-69
2023/06/08 07:57:06;;;;;;;;;33.67;30.33;;;;;27.13;41.60;101118.75;5094117;27;45515;-72
2023/06/08 07:59:32;;;;;;;;;34.00;29.67;;;;;27.16;42.67;101101.50;5088420;27;45558;-72
2023/06/08 08:01:57;;;;;;;;;37.00;31.67;;;;;27.30;41.12;101107.25;5093761;27;45607;-72
2023/06/08 08:04:23;;;;;;;;;36.33;31.00;;;;;27.46;42.17;101102.09;5090757;27;46107;-69
2023/06/08 08:06:48;;;;;;;;;32.00;27.67;;;;;27.62;39.89;101107.78;5096397;27;45444;-69
2023/06/08 08:09:13;;;;;;;;;36.00;30.67;;;;;27.67;41.15;101106.63;5089374;27;45248;-71
2023/06/08 08:11:39;;;;;;;;;31.67;29.33;;;;;27.75;40.90;101095.41;5090546;27;45974;-72
2023/06/08 08:14:09;;;;;;;;;31.33;30.00;;;;;27.83;40.61;101084.28;5091630;27;45494;-71
2023/06/08 08:16:38;;;;;;;;;34.33;30.33;;;;;27.99;40.77;101084.50;5087987;27;45524;-72
2023/06/08 08:19:03;;;;;;;;;30.00;27.00;;;;;28.28;39.21;101105.81;5086488;27;45487;-71
2023/06/08 08:21:28;;;;;;;;;38.00;31.33;;;;;28.47;40.29;101103.19;5069685;28;46181;-69
2023/06/08 08:23:54;;;;;;;;;28.33;24.67;;;;;28.55;39.34;101095.56;5082219;27;45428;-70
2023/06/08 08:26:20;;;;;;;;;31.00;29.33;;;;;28.65;39.97;101090.59;5084821;27;45350;-69
2023/06/08 08:28:46;;;;;;;;;30.67;28.67;;;;;28.82;37.85;101097.06;5088675;27;45147;-70
2023/06/08 08:31:11;;;;;;;;;32.67;28.00;;;;;28.94;39.26;101080.19;5084944;27;46047;-70
2023/06/08 08:33:37;;;;;;;;;30.67;27.67;;;;;29.16;37.27;101075.50;5081256;27;45425;-70
2023/06/08 08:36:02;;;;;;;;;35.00;30.33;;;;;29.29;37.14;101081.19;5087591;27;45217;-70
2023/06/08 08:38:28;;;;;;;;;32.33;28.67;;;;;29.32;39.08;101075.59;5092431;27;45420;-71
2023/06/08 08:40:53;;;;;;;;;33.00;29.00;;;;;29.46;38.18;101072.19;5091308;27;45768;-70
2023/06/08 08:43:24;;;;;;;;;36.00;30.67;;;;;29.66;36.96;101073.94;5093452;27;45947;-70
2023/06/08 08:45:50;;;;;;;;;36.67;30.00;;;;;29.80;37.11;101076.88;5083234;27;45336;-70
2023/06/08 08:48:19;;;;;;;;;29.00;29.00;;;;;29.93;37.08;101062.59;5093901;27;45387;-70
2023/06/08 08:50:57;;;;;;;;;28.67;27.00;;;;;30.03;37.05;101074.78;5087361;27;45461;-70
2023/06/08 08:53:27;;;;;;;;;34.67;31.00;;;;;30.17;36.86;101064.03;5096452;27;47787;-69
2023/06/08 08:55:54;;;;;;;;;31.33;27.33;;;;;30.35;36.53;101070.34;5093701;27;45350;-69
2023/06/08 08:58:21;;;;;;;;;29.67;29.33;;;;;30.40;35.29;101065.53;5092405;27;45454;-69
2023/06/08 09:00:50;;;;;;;;;33.33;30.67;;;;;30.44;35.08;101060.78;5099714;27;45447;-69
2023/06/08 09:03:15;;;;;;;;;29.00;27.67;;;;;30.54;36.13;101052.00;5088534;27;46069;-69
2023/06/08 09:05:43;;;;;;;;;30.00;27.33;;;;;30.57;35.09;101037.31;5092666;27;45343;-69
2023/06/08 09:08:09;;;;;;;;;32.00;29.33;;;;;30.85;35.04;101064.00;5095281;27;45391;-70
2023/06/08 09:10:35;;;;;;;;;23.00;22.75;;;;;30.94;34.84;101068.03;5092030;27;45434;-70
2023/06/08 09:13:02;;;;;;;;;24.25;23.00;;;;;31.03;35.53;101050.25;5094317;27;45369;-70
2023/06/08 09:15:36;;;;;;;;;26.67;25.33;;;;;31.18;34.87;101052.13;5096506;27;45331;-70
2023/06/08 09:18:16;;;;;;;;;24.67;24.67;;;;;31.52;34.60;101050.16;5090756;27;45342;-70
2023/06/08 09:20:42;;;;;;;;;29.00;27.33;;;;;31.58;34.28;101044.34;5082702;27;45217;-72
2023/06/08 09:23:21;;;;;;;;;25.50;25.00;;;;;31.58;34.78;101039.75;5095536;27;48348;-70
2023/06/08 09:25:47;;;;;;;;;27.25;24.75;;;;;31.58;34.20;101023.34;5089748;27;45467;-70
2023/06/08 09:28:24;;;;;;;;;25.00;24.25;;;;;31.81;33.44;101042.94;5088046;27;45351;-71
2023/06/08 09:30:50;;;;;;;;;27.50;27.50;;;;;31.92;33.05;101037.72;5090387;27;45848;-70
2023/06/08 09:33:29;;;;;;;;;27.33;25.67;;;;;31.99;33.87;101013.63;5096219;27;46305;-70
2023/06/08 09:35:57;;;;;;;;;26.75;26.75;;;;;32.23;33.15;101041.28;5090054;27;45359;-70
2023/06/08 09:38:25;;;;;;;;;23.00;22.00;;;;;32.26;33.14;101005.53;5095457;27;45450;-70
2023/06/08 09:40:51;;;;;;;;;19.50;19.50;;;;;32.46;33.16;101031.66;5087743;27;45235;-70
2023/06/08 09:43:30;;;;;;;;;21.75;21.75;;;;;32.28;32.11;101039.16;5092000;27;45910;-70
2023/06/08 09:45:56;;;;;;;;;27.75;25.25;;;;;32.27;31.67;101016.41;5094739;27;45439;-71
2023/06/08 09:48:21;;;;;;;;;23.75;22.75;;;;;32.56;32.54;101034.72;5096364;27;45287;-71
2023/06/08 09:50:47;;;;;;;;;23.50;22.75;;;;;32.47;32.32;101026.09;5089800;27;51692;-71
2023/06/08 09:53:14;;;;;;;;;23.75;21.75;;;;;32.77;32.20;101030.59;5083286;27;45493;-70
2023/06/08 09:55:41;;;;;;;;;26.75;24.50;;;;;32.93;31.90;101025.84;5089309;27;45409;-71
2023/06/08 09:58:06;;;;;;;;;24.50;22.25;;;;;32.98;31.67;101026.41;5093512;27;45306;-71
2023/06/08 10:00:36;;;;;;;;;19.75;18.75;;;;;33.25;31.75;101025.59;5090379;27;46217;-71
2023/06/08 10:03:28;;;;;;;;;27.50;24.50;;;;;33.32;31.28;101023.31;5098084;27;45914;-71
2023/06/08 10:05:57;;;;;;;;;28.50;25.75;;;;;33.42;31.28;101017.13;5096924;27;45408;-70
2023/06/08 10:08:25;;;;;;;;;26.00;23.00;;;;;33.64;30.79;101015.69;5088868;27;45476;-71
2023/06/08 10:10:51;;;;;;;;;25.75;25.00;;;;;33.67;30.89;101020.94;5097831;27;45421;-70
2023/06/08 10:13:17;;;;;;;;;24.25;23.00;;;;;33.62;29.31;101017.66;5087758;27;46090;-70
2023/06/08 10:15:43;;;;;;;;;23.25;22.00;;;;;33.61;30.42;100999.41;5092578;27;46146;-71
2023/06/08 10:18:09;;;;;;;;;23.50;21.00;;;;;33.68;30.08;101016.34;5084724;27;45408;-72
2023/06/08 10:20:35;;;;;;;;;23.75;23.75;;;;;33.43;29.67;101012.50;5089925;27;45316;-75
2023/06/08 10:23:02;;;;;;;;;24.25;20.75;;;;;33.82;29.93;101016.25;5088406;27;45496;-72
2023/06/08 10:25:30;;;;;;;;;23.75;21.50;;;;;33.93;29.65;101004.53;5091110;27;45328;-73
2023/06/08 10:28:03;;;;;;;;;25.25;24.25;;;;;34.12;29.59;101010.50;5087997;27;45210;-72
2023/06/08 10:30:39;;;;;;;;;18.75;18.75;;;;;34.03;28.67;101000.13;5090818;27;45472;-71
2023/06/08 10:33:10;;;;;;;;;19.75;19.50;;;;;34.37;28.88;101008.75;5087428;27;45387;-71
2023/06/08 10:35:37;;;;;;;;;22.80;21.20;;;;;34.50;28.90;101010.47;5091144;27;45473;-72
2023/06/08 10:38:13;;;;;;;;;19.50;18.50;;;;;34.56;28.27;100997.31;5109959;27;45440;-73
2023/06/08 10:40:49;;;;;;;;;19.50;19.25;;;;;34.70;28.22;100989.84;5094834;27;45394;-72
2023/06/08 10:43:15;;;;;;;;;21.25;20.25;;;;;34.73;27.37;100986.84;5090371;27;45405;-72
2023/06/08 10:45:43;;;;;;;;;21.00;20.40;;;;;34.92;27.85;100988.22;5091967;27;45232;-74
2023/06/08 10:48:13;;;;;;;;;24.75;21.00;;;;;34.95;27.66;100960.50;5093414;27;45427;-73
2023/06/08 10:50:41;;;;;;;;;19.00;19.00;;;;;35.24;27.30;100984.94;5090217;27;45720;-72
2023/06/08 10:53:07;;;;;;;;;21.00;19.50;;;;;35.37;27.61;100977.47;5092774;27;45746;-72
2023/06/08 10:55:32;;;;;;;;;22.50;21.50;;;;;35.42;27.26;100967.00;5090242;27;45243;-72
2023/06/08 10:58:06;;;;;;;;;19.50;18.50;;;;;35.48;26.73;100966.53;5093801;27;45415;-71
2023/06/08 11:00:33;;;;;;;;;20.40;19.20;;;;;35.41;26.06;100979.03;5086341;27;45206;-72
2023/06/08 11:03:04;;;;;;;;;21.40;20.60;;;;;35.51;25.94;100968.16;5080293;27;46131;-71
2023/06/08 11:05:31;;;;;;;;;20.40;19.80;;;;;35.56;26.68;100958.59;5092145;27;45227;-72
2023/06/08 11:07:57;;;;;;;;;19.60;18.00;;;;;35.56;25.41;100966.84;5085992;27;45257;-72